createdAt,value
2019-02-07T00:00:08.686Z,6.39
2019-02-07T00:01:08.677Z,6.30
2019-02-07T00:02:08.665Z,6.35
2019-02-07T00:03:08.660Z,6.28
2019-02-07T00:04:08.641Z,6.33
2019-02-07T00:05:08.677Z,6.45
2019-02-07T00:06:08.626Z,6.38
2019-02-07T00:07:08.609Z,6.38
2019-02-07T00:08:08.601Z,6.36
2019-02-07T00:09:08.585Z,6.44
2019-02-07T00:10:08.576Z,6.44
2019-02-07T00:11:08.616Z,6.45
2019-02-07T00:12:08.558Z,6.45
2019-02-07T00:13:08.546Z,6.33
2019-02-07T00:14:08.531Z,6.36
2019-02-07T00:15:08.519Z,6.30
2019-02-07T00:16:08.529Z,6.35
2019-02-07T00:17:08.505Z,6.35
2019-02-07T00:18:08.518Z,6.41
2019-02-07T00:19:08.477Z,6.33
2019-02-07T00:20:08.470Z,6.33
2019-02-07T00:21:08.455Z,6.28
2019-02-07T00:22:08.472Z,6.33
2019-02-07T00:23:08.443Z,6.35
2019-02-07T00:24:08.423Z,6.31
2019-02-07T00:25:08.434Z,6.33
2019-02-07T00:26:08.401Z,6.31
2019-02-07T00:27:08.391Z,6.26
2019-02-07T00:28:08.390Z,6.41
2019-02-07T00:29:08.366Z,6.42
2019-02-07T00:30:08.359Z,6.39
2019-02-07T00:31:08.377Z,6.41
2019-02-07T00:32:08.336Z,6.42
2019-02-07T00:33:08.336Z,6.44
2019-02-07T00:34:08.315Z,6.36
2019-02-07T00:35:08.302Z,6.45
2019-02-07T00:36:08.292Z,6.41
2019-02-07T00:37:08.398Z,6.48
2019-02-07T00:38:08.275Z,6.45
2019-02-07T00:39:08.270Z,6.38
2019-02-07T00:40:08.247Z,6.39
2019-02-07T00:41:08.246Z,6.41
2019-02-07T00:42:08.225Z,6.41
2019-02-07T00:43:08.217Z,6.36
2019-02-07T00:44:08.204Z,6.44
2019-02-07T00:45:08.258Z,6.38
2019-02-07T00:46:08.181Z,6.42
2019-02-07T00:47:08.168Z,6.42
2019-02-07T00:48:08.159Z,6.39
2019-02-07T00:49:08.147Z,6.42
2019-02-07T00:50:08.142Z,6.44
2019-02-07T00:51:08.166Z,6.39
2019-02-07T00:52:08.113Z,6.44
2019-02-07T00:53:08.109Z,6.45
2019-02-07T00:54:08.090Z,6.42
2019-02-07T00:55:08.081Z,6.46
2019-02-07T00:56:08.088Z,6.39
2019-02-07T00:57:08.103Z,6.41
2019-02-07T00:58:08.050Z,6.42
2019-02-07T00:59:08.038Z,6.44
2019-02-07T01:00:08.026Z,6.39
2019-02-07T01:01:08.028Z,6.36
2019-02-07T01:02:08.017Z,6.44
2019-02-07T01:03:07.992Z,6.46
2019-02-07T01:04:08.023Z,6.45
2019-02-07T01:05:07.974Z,6.41
2019-02-07T01:06:07.960Z,6.44
2019-02-07T01:07:07.987Z,6.36
2019-02-07T01:08:07.944Z,6.38
2019-02-07T01:09:07.927Z,6.38
2019-02-07T01:10:07.920Z,6.39
2019-02-07T01:11:07.911Z,6.36
2019-02-07T01:12:07.896Z,6.41
2019-02-07T01:13:07.913Z,6.42
2019-02-07T01:14:07.872Z,6.39
2019-02-07T01:15:07.861Z,6.45
2019-02-07T01:16:07.848Z,6.41
2019-02-07T01:17:07.839Z,6.39
2019-02-07T01:18:07.846Z,6.38
2019-02-07T01:19:07.869Z,6.39
2019-02-07T01:20:07.806Z,6.36
2019-02-07T01:21:07.797Z,6.41
2019-02-07T01:22:07.787Z,6.39
2019-02-07T01:23:07.774Z,6.38
2019-02-07T01:24:07.783Z,6.44
2019-02-07T01:25:07.777Z,6.38
2019-02-07T01:26:07.737Z,6.44
2019-02-07T01:27:07.729Z,6.44
2019-02-07T01:28:07.717Z,6.39
2019-02-07T01:29:07.709Z,6.38
2019-02-07T01:30:07.713Z,6.42
2019-02-07T01:31:07.734Z,6.44
2019-02-07T01:32:07.676Z,6.36
2019-02-07T01:33:07.662Z,6.27
2019-02-07T01:34:07.648Z,6.35
2019-02-07T01:35:07.641Z,6.41
2019-02-07T01:36:07.637Z,6.30
2019-02-07T01:37:07.676Z,6.27
2019-02-07T01:38:07.606Z,6.33
2019-02-07T01:39:07.599Z,6.35
2019-02-07T01:40:07.587Z,6.36
2019-02-07T01:41:07.601Z,6.35
2019-02-07T01:42:07.579Z,6.42
2019-02-07T01:43:07.550Z,6.28
2019-02-07T01:44:07.594Z,6.31
2019-02-07T01:45:12.968Z,6.30
2019-02-07T01:46:08.528Z,6.30
2019-02-07T01:47:07.515Z,6.33
2019-02-07T01:48:07.513Z,6.30
2019-02-07T01:49:07.485Z,6.33
2019-02-07T01:50:07.473Z,6.27
2019-02-07T01:51:07.499Z,6.28
2019-02-07T01:52:07.457Z,6.28
2019-02-07T01:53:07.453Z,6.20
2019-02-07T01:54:07.445Z,6.31
2019-02-07T01:55:07.420Z,6.30
2019-02-07T01:56:07.412Z,6.24
2019-02-07T01:57:07.424Z,6.27
2019-02-07T01:58:07.388Z,6.20
2019-02-07T01:59:07.392Z,6.20
2019-02-07T02:00:07.364Z,6.14
2019-02-07T02:01:07.354Z,6.27
2019-02-07T02:02:07.343Z,6.19
2019-02-07T02:03:07.360Z,6.27
2019-02-07T02:04:07.324Z,6.17
2019-02-07T02:05:07.353Z,6.31
2019-02-07T02:06:07.300Z,6.27
2019-02-07T02:07:07.290Z,6.28
2019-02-07T02:08:07.276Z,6.19
2019-02-07T02:09:07.267Z,6.26
2019-02-07T02:10:07.294Z,6.28
2019-02-07T02:11:07.255Z,6.22
2019-02-07T02:12:07.232Z,6.26
2019-02-07T02:13:07.221Z,6.27
2019-02-07T02:14:07.209Z,6.19
2019-02-07T02:15:07.199Z,6.28
2019-02-07T02:16:07.263Z,6.24
2019-02-07T02:17:07.177Z,6.27
2019-02-07T02:18:07.168Z,6.27
2019-02-07T02:19:07.159Z,6.33
2019-02-07T02:20:07.145Z,6.35
2019-02-07T02:21:07.142Z,6.27
2019-02-07T02:22:07.187Z,6.33
2019-02-07T02:23:07.111Z,6.33
2019-02-07T02:24:07.101Z,6.28
2019-02-07T02:25:07.092Z,6.27
2019-02-07T02:26:07.086Z,6.30
2019-02-07T02:27:07.083Z,6.30
2019-02-07T02:28:07.093Z,6.35
2019-02-07T02:29:07.046Z,6.33
2019-02-07T02:30:07.034Z,6.33
2019-02-07T02:31:07.038Z,6.31
2019-02-07T02:32:07.016Z,6.35
2019-02-07T02:33:07.036Z,6.38
2019-02-07T02:34:06.990Z,6.35
2019-02-07T02:35:06.978Z,6.36
2019-02-07T02:36:06.975Z,6.35
2019-02-07T02:37:06.985Z,6.33
2019-02-07T02:38:06.953Z,6.36
2019-02-07T02:39:06.979Z,6.28
2019-02-07T02:40:06.927Z,6.35
2019-02-07T02:41:06.914Z,6.41
2019-02-07T02:42:06.903Z,6.39
2019-02-07T02:43:06.906Z,6.36
2019-02-07T02:44:06.882Z,6.28
2019-02-07T02:45:06.909Z,6.31
2019-02-07T02:46:06.858Z,6.33
2019-02-07T02:47:06.847Z,6.27
2019-02-07T02:48:06.840Z,6.31
2019-02-07T02:49:06.846Z,6.35
2019-02-07T02:50:06.824Z,6.35
2019-02-07T02:51:06.822Z,6.27
2019-02-07T02:52:06.798Z,6.39
2019-02-07T02:53:06.819Z,6.35
2019-02-07T02:54:06.772Z,6.39
2019-02-07T02:55:06.774Z,6.36
2019-02-07T02:56:06.750Z,6.31
2019-02-07T02:57:06.753Z,6.35
2019-02-07T02:58:06.741Z,6.33
2019-02-07T02:59:06.753Z,6.33
2019-02-07T03:00:06.706Z,6.30
2019-02-07T03:01:06.710Z,6.33
2019-02-07T03:02:06.683Z,6.39
2019-02-07T03:03:06.694Z,6.36
2019-02-07T03:04:06.660Z,6.33
2019-02-07T03:05:06.680Z,6.42
2019-02-07T03:06:06.646Z,6.31
2019-02-07T03:07:06.647Z,6.35
2019-02-07T03:08:06.632Z,6.36
2019-02-07T03:09:06.607Z,6.26
2019-02-07T03:10:06.604Z,6.27
2019-02-07T03:11:06.591Z,6.41
2019-02-07T03:12:06.588Z,6.44
2019-02-07T03:13:06.602Z,6.38
2019-02-07T03:14:06.575Z,6.48
2019-02-07T03:15:06.550Z,6.39
2019-02-07T03:16:06.532Z,6.38
2019-02-07T03:17:06.522Z,6.35
2019-02-07T03:18:06.511Z,6.31
2019-02-07T03:19:06.541Z,6.30
2019-02-07T03:20:06.501Z,6.36
2019-02-07T03:21:06.476Z,6.38
2019-02-07T03:22:06.467Z,6.38
2019-02-07T03:23:06.457Z,6.28
2019-02-07T03:24:06.480Z,6.27
2019-02-07T03:25:06.479Z,6.36
2019-02-07T03:26:06.426Z,6.38
2019-02-07T03:27:06.412Z,6.35
2019-02-07T03:28:06.400Z,6.35
2019-02-07T03:29:06.387Z,6.44
2019-02-07T03:30:06.403Z,6.41
2019-02-07T03:31:06.373Z,6.38
2019-02-07T03:32:06.403Z,6.35
2019-02-07T03:33:06.345Z,6.38
2019-02-07T03:34:06.331Z,6.35
2019-02-07T03:35:06.329Z,6.35
2019-02-07T03:36:06.330Z,6.31
2019-02-07T03:37:06.303Z,6.39
2019-02-07T03:38:06.320Z,6.38
2019-02-07T03:39:06.277Z,6.46
2019-02-07T03:40:06.268Z,6.28
2019-02-07T03:41:06.262Z,6.38
2019-02-07T03:42:06.263Z,6.28
2019-02-07T03:43:06.236Z,6.42
2019-02-07T03:44:06.254Z,6.30
2019-02-07T03:45:06.212Z,6.30
2019-02-07T03:46:06.211Z,6.35
2019-02-07T03:47:06.203Z,6.27
2019-02-07T03:48:06.190Z,6.31
2019-02-07T05:16:20.435Z,6.42
2019-02-07T05:17:20.409Z,6.38
2019-02-07T05:18:20.437Z,6.42
2019-02-07T05:19:20.399Z,6.41
2019-02-07T05:20:20.383Z,6.45
2019-02-07T05:21:20.394Z,6.48
2019-02-07T05:22:29.100Z,6.38
2019-02-07T05:23:20.386Z,6.38
2019-02-07T05:24:20.351Z,6.45
2019-02-07T05:25:20.329Z,6.44
2019-02-07T05:26:20.328Z,6.35
2019-02-07T05:27:20.303Z,6.39
2019-02-07T05:28:20.324Z,6.42
2019-02-07T05:29:20.310Z,6.45
2019-02-07T05:30:20.270Z,6.52
2019-02-07T05:31:20.255Z,6.56
2019-02-07T05:32:20.250Z,6.52
2019-02-07T05:33:20.258Z,6.59
2019-02-07T05:34:20.247Z,6.62
2019-02-07T05:35:20.243Z,6.67
2019-02-07T05:36:20.202Z,6.63
2019-02-07T05:37:20.218Z,6.70
2019-02-07T05:38:20.219Z,6.67
2019-02-07T05:39:20.198Z,6.66
2019-02-07T05:40:20.160Z,6.66
2019-02-07T05:41:20.159Z,6.78
2019-02-07T05:42:22.600Z,6.75
2019-02-07T05:43:20.135Z,6.69
2019-02-07T05:44:20.129Z,6.69
2019-02-07T05:45:20.135Z,6.78
2019-02-07T05:46:20.090Z,6.84
2019-02-07T05:47:20.124Z,6.79
2019-02-07T05:48:20.082Z,6.75
2019-02-07T05:49:20.060Z,6.81
2019-02-07T05:50:20.136Z,6.78
2019-02-07T05:51:20.049Z,6.75
2019-02-07T05:52:20.044Z,6.87
2019-02-07T05:53:20.015Z,6.81
2019-02-07T05:54:20.001Z,6.82
2019-02-07T05:55:20.006Z,6.85
2019-02-07T05:56:20.022Z,6.85
2019-02-07T05:57:19.969Z,6.87
2019-02-07T05:58:19.956Z,6.84
2019-02-07T05:59:19.967Z,6.88
2019-02-07T06:00:19.932Z,6.93
2019-02-07T06:01:19.923Z,6.88
2019-02-07T06:02:19.957Z,6.87
2019-02-07T06:03:19.897Z,7.02
2019-02-07T06:04:19.891Z,6.85
2019-02-07T06:05:19.917Z,6.92
2019-02-07T06:06:19.881Z,6.99
2019-02-07T06:07:19.873Z,6.99
2019-02-07T06:08:19.855Z,6.88
2019-02-07T06:09:19.842Z,6.88
2019-02-07T06:10:19.849Z,6.93
2019-02-07T06:11:19.813Z,6.97
2019-02-07T06:12:19.834Z,7.05
2019-02-07T06:13:19.804Z,6.97
2019-02-07T06:14:19.808Z,6.99
2019-02-07T06:15:19.767Z,7.00
2019-02-07T06:16:19.771Z,6.93
2019-02-07T06:17:19.758Z,6.85
2019-02-07T06:18:19.734Z,7.00
2019-02-07T06:19:19.746Z,7.00
2019-02-07T06:20:19.724Z,7.00
2019-02-07T06:21:19.711Z,6.99
2019-02-07T06:22:19.702Z,7.06
2019-02-07T06:23:19.743Z,6.99
2019-02-07T06:24:19.689Z,6.97
2019-02-07T06:25:19.696Z,7.00
2019-02-07T06:26:19.660Z,6.97
2019-02-07T06:27:19.657Z,6.97
2019-02-07T06:28:19.624Z,6.92
2019-02-07T06:29:19.641Z,6.99
2019-02-07T06:30:19.618Z,7.02
2019-02-07T06:31:19.613Z,6.99
2019-02-07T06:32:19.576Z,6.92
2019-02-07T06:33:19.583Z,6.96
2019-02-07T06:34:28.754Z,6.97
2019-02-07T06:35:20.542Z,6.96
2019-02-07T06:36:19.537Z,7.00
2019-02-07T06:37:19.562Z,7.03
2019-02-07T06:38:19.540Z,6.97
2019-02-07T06:39:19.510Z,7.03
2019-02-07T06:40:19.493Z,6.97
2019-02-07T06:41:19.510Z,6.97
2019-02-07T06:42:19.460Z,7.02
2019-02-07T06:43:19.471Z,7.03
2019-02-07T06:44:19.441Z,7.02
2019-02-07T06:45:19.450Z,7.07
2019-02-07T06:46:19.434Z,7.03
2019-02-07T06:47:19.416Z,7.13
2019-02-07T06:48:19.404Z,7.17
2019-02-07T06:49:19.410Z,7.24
2019-02-07T06:50:19.395Z,7.23
2019-02-07T06:51:19.372Z,7.13
2019-02-07T06:52:19.399Z,7.21
2019-02-07T06:53:19.369Z,7.11
2019-02-07T06:54:19.373Z,7.11
2019-02-07T06:55:19.396Z,7.23
2019-02-07T06:56:19.328Z,7.18
2019-02-07T06:57:19.434Z,7.18
2019-02-07T06:58:19.340Z,7.21
2019-02-07T06:59:19.299Z,7.20
2019-02-07T07:00:19.283Z,7.23
2019-02-07T07:01:19.334Z,7.13
2019-02-07T07:02:19.243Z,7.15
2019-02-07T07:03:19.276Z,7.14
2019-02-07T07:04:19.241Z,7.20
2019-02-07T07:05:19.245Z,7.28
2019-02-07T07:06:19.206Z,7.23
2019-02-07T07:07:19.203Z,7.21
2019-02-07T07:08:19.200Z,7.18
2019-02-07T07:09:19.172Z,7.23
2019-02-07T07:10:19.189Z,7.20
2019-02-07T07:11:19.167Z,7.18
2019-02-07T07:12:19.130Z,7.17
2019-02-07T07:13:19.149Z,7.15
2019-02-07T07:14:19.136Z,7.13
2019-02-07T07:15:19.118Z,7.28
2019-02-07T07:16:19.108Z,7.18
2019-02-07T07:17:25.406Z,7.25
2019-02-07T07:18:20.111Z,7.18
2019-02-07T07:19:19.070Z,7.20
2019-02-07T07:20:19.071Z,7.20
2019-02-07T07:21:19.043Z,7.18
2019-02-07T07:22:19.089Z,7.17
2019-02-07T07:23:19.008Z,7.20
2019-02-07T07:24:26.550Z,7.23
2019-02-07T07:25:26.535Z,7.17
2019-02-07T07:26:26.512Z,7.17
2019-02-07T07:29:45.578Z,7.29
2019-02-07T07:31:58.363Z,7.29
2019-02-07T07:34:11.121Z,7.35
2019-02-07T07:36:23.908Z,7.33
2019-02-07T07:37:23.877Z,7.31
2019-02-07T07:38:23.893Z,7.28
2019-02-07T07:39:23.874Z,7.25
2019-02-07T07:40:23.847Z,7.31
2019-02-07T07:41:23.827Z,7.31
2019-02-07T07:42:23.835Z,7.35
2019-02-07T07:43:31.353Z,7.36
2019-02-07T07:44:23.804Z,7.33
2019-02-07T07:45:23.775Z,7.48
2019-02-07T07:46:23.777Z,7.43
2019-02-07T07:47:23.755Z,7.48
2019-02-07T07:48:23.759Z,7.45
2019-02-07T07:49:23.744Z,7.47
2019-02-07T07:50:23.734Z,7.48
2019-02-07T07:51:23.711Z,7.39
2019-02-07T07:52:23.696Z,7.35
2019-02-07T07:53:23.687Z,7.38
2019-02-07T07:54:23.700Z,7.36
2019-02-07T07:55:23.666Z,7.43
2019-02-07T07:56:23.654Z,7.45
2019-02-07T07:57:23.656Z,7.50
2019-02-07T07:58:23.633Z,7.42
2019-02-07T07:59:23.619Z,7.40
2019-02-07T08:00:23.637Z,7.47
2019-02-07T08:01:23.597Z,7.45
2019-02-07T08:02:23.586Z,7.40
2019-02-07T08:03:23.574Z,7.45
2019-02-07T08:04:23.564Z,7.48
2019-02-07T08:05:23.553Z,7.47
2019-02-07T08:06:23.563Z,7.50
2019-02-07T08:07:23.538Z,7.56
2019-02-07T08:08:23.525Z,7.54
2019-02-07T08:09:23.529Z,7.63
2019-02-07T08:10:23.521Z,7.58
2019-02-07T08:11:23.516Z,7.58
2019-02-07T08:12:23.483Z,7.58
2019-02-07T08:13:23.465Z,7.56
2019-02-07T08:14:23.456Z,7.61
2019-02-07T08:15:23.475Z,7.60
2019-02-07T08:16:23.442Z,7.61
2019-02-07T08:17:23.436Z,7.66
2019-02-07T08:18:23.410Z,7.61
2019-02-07T08:19:23.401Z,7.60
2019-02-07T08:20:23.386Z,7.67
2019-02-07T08:21:23.392Z,7.61
2019-02-07T08:22:23.367Z,7.58
2019-02-07T08:23:23.367Z,7.57
2019-02-07T08:24:23.344Z,7.50
2019-02-07T08:25:23.330Z,7.50
2019-02-07T08:26:23.337Z,7.51
2019-02-07T08:27:23.309Z,7.56
2019-02-07T08:28:23.309Z,7.50
2019-02-07T08:29:23.338Z,7.56
2019-02-07T08:30:23.273Z,7.61
2019-02-07T08:31:23.266Z,7.66
2019-02-07T08:32:23.270Z,7.60
2019-02-07T08:33:23.246Z,7.63
2019-02-07T08:34:23.230Z,7.54
2019-02-07T08:35:23.245Z,7.66
2019-02-07T08:36:23.214Z,7.57
2019-02-07T08:37:23.195Z,7.67
2019-02-07T08:38:23.206Z,7.76
2019-02-07T08:39:23.173Z,7.80
2019-02-07T08:40:23.167Z,7.80
2019-02-07T08:41:23.189Z,7.77
2019-02-07T08:42:23.141Z,7.75
2019-02-07T08:43:23.133Z,7.82
2019-02-07T08:44:23.130Z,7.79
2019-02-07T08:45:23.132Z,7.79
2019-02-07T08:46:23.093Z,7.79
2019-02-07T08:47:23.123Z,7.88
2019-02-07T08:48:23.072Z,7.88
2019-02-07T08:49:23.099Z,7.88
2019-02-07T08:50:24.461Z,7.95
2019-02-07T08:51:23.043Z,7.93
2019-02-07T08:52:23.054Z,7.94
2019-02-07T08:53:23.033Z,7.98
2019-02-07T08:54:23.004Z,7.98
2019-02-07T08:55:23.006Z,7.98
2019-02-07T08:56:22.981Z,8.01
2019-02-07T08:57:22.971Z,7.94
2019-02-07T08:58:22.956Z,7.95
2019-02-07T08:59:22.977Z,7.94
2019-02-07T09:00:22.977Z,7.98
2019-02-07T09:01:22.927Z,7.95
2019-02-07T09:02:22.919Z,7.94
2019-02-07T09:03:22.903Z,7.93
2019-02-07T09:04:22.893Z,7.93
2019-02-07T09:05:22.883Z,7.94
2019-02-07T09:06:22.915Z,7.88
2019-02-07T09:07:22.861Z,7.83
2019-02-07T09:08:22.846Z,7.88
2019-02-07T09:09:22.835Z,7.91
2019-02-07T09:10:22.824Z,8.01
2019-02-07T09:11:22.814Z,8.08
2019-02-07T09:12:22.831Z,8.09
2019-02-07T09:13:22.791Z,8.13
2019-02-07T09:14:22.779Z,8.16
2019-02-07T09:15:22.772Z,8.27
2019-02-07T09:16:22.757Z,8.26
2019-02-07T09:17:22.771Z,8.33
2019-02-07T09:18:22.749Z,8.23
2019-02-07T09:19:22.723Z,8.24
2019-02-07T09:20:22.721Z,8.23
2019-02-07T09:21:22.702Z,8.28
2019-02-07T09:22:23.977Z,8.20
2019-02-07T09:23:22.692Z,8.27
2019-02-07T09:24:22.684Z,8.34
2019-02-07T09:25:22.653Z,8.38
2019-02-07T09:26:22.651Z,8.37
2019-02-07T09:27:22.636Z,8.30
2019-02-07T09:28:22.623Z,8.30
2019-02-07T09:29:22.659Z,8.41
2019-02-07T09:30:22.609Z,8.44
2019-02-07T09:31:22.611Z,8.41
2019-02-07T09:32:22.576Z,8.42
2019-02-07T09:33:22.568Z,8.41
2019-02-07T09:34:22.554Z,8.33
2019-02-07T09:35:22.575Z,8.44
2019-02-07T09:36:22.535Z,8.34
2019-02-07T09:37:22.521Z,8.46
2019-02-07T09:38:22.510Z,8.51
2019-02-07T09:39:22.498Z,8.55
2019-02-07T09:40:22.487Z,8.58
2019-02-07T09:41:22.501Z,8.58
2019-02-07T09:42:22.463Z,8.52
2019-02-07T09:43:22.453Z,8.48
2019-02-07T09:44:22.442Z,8.46
2019-02-07T09:45:22.429Z,8.48
2019-02-07T09:46:22.433Z,8.51
2019-02-07T09:47:22.453Z,8.48
2019-02-07T09:48:22.400Z,8.49
2019-02-07T09:49:22.384Z,8.51
2019-02-07T09:50:22.374Z,8.52
2019-02-07T09:51:22.361Z,8.48
2019-02-07T09:52:22.368Z,8.58
2019-02-07T09:53:24.034Z,8.56
2019-02-07T09:54:22.330Z,8.55
2019-02-07T09:55:22.318Z,8.51
2019-02-07T09:56:22.306Z,8.48
2019-02-07T09:57:22.295Z,8.45
2019-02-07T09:58:22.299Z,8.58
2019-02-07T09:59:22.289Z,8.63
2019-02-07T10:00:22.262Z,8.67
2019-02-07T10:01:22.250Z,8.69
2019-02-07T10:02:22.239Z,8.71
2019-02-07T10:03:22.227Z,8.79
2019-02-07T10:04:22.227Z,8.79
2019-02-07T10:05:22.222Z,8.78
2019-02-07T10:06:22.194Z,8.66
2019-02-07T10:07:22.189Z,8.58
2019-02-07T10:08:22.171Z,8.71
2019-02-07T10:09:22.181Z,8.70
2019-02-07T10:10:22.152Z,8.64
2019-02-07T10:11:22.152Z,8.69
2019-02-07T10:12:22.141Z,8.64
2019-02-07T10:13:22.114Z,8.66
2019-02-07T10:14:22.115Z,8.56
2019-02-07T10:15:22.096Z,8.66
2019-02-07T10:16:22.079Z,8.67
2019-02-07T10:17:22.088Z,8.67
2019-02-07T10:18:32.536Z,8.64
2019-02-07T10:19:23.061Z,8.71
2019-02-07T10:20:22.040Z,8.73
2019-02-07T10:21:22.025Z,8.81
2019-02-07T10:22:22.013Z,8.82
2019-02-07T10:23:22.031Z,8.79
2019-02-07T10:24:21.990Z,8.92
2019-02-07T10:25:21.990Z,9.02
2019-02-07T10:26:21.988Z,9.10
2019-02-07T10:27:21.960Z,9.22
2019-02-07T10:28:21.945Z,9.31
2019-02-07T10:29:21.958Z,9.22
2019-02-07T10:30:21.926Z,9.28
2019-02-07T10:31:21.917Z,9.32
2019-02-07T10:32:21.921Z,9.28
2019-02-07T10:33:21.890Z,9.26
2019-02-07T10:34:21.883Z,9.34
2019-02-07T10:35:23.074Z,9.34
2019-02-07T10:36:21.894Z,9.26
2019-02-07T10:37:21.859Z,9.41
2019-02-07T10:38:21.846Z,9.37
2019-02-07T10:39:21.822Z,9.34
2019-02-07T10:40:21.814Z,9.26
2019-02-07T10:41:21.800Z,9.39
2019-02-07T10:42:21.818Z,9.46
2019-02-07T10:43:21.797Z,9.55
2019-02-07T10:44:21.777Z,9.61
2019-02-07T10:45:21.757Z,9.59
2019-02-07T10:46:21.749Z,9.66
2019-02-07T10:47:21.739Z,9.80
2019-02-07T10:48:21.742Z,9.83
2019-02-07T10:49:21.725Z,9.84
2019-02-07T10:50:21.702Z,9.91
2019-02-07T10:51:21.690Z,9.83
2019-02-07T10:52:21.677Z,9.79
2019-02-07T10:53:21.671Z,9.87
2019-02-07T10:54:21.705Z,9.92
2019-02-07T10:55:21.663Z,10.01
2019-02-07T10:56:21.633Z,9.89
2019-02-07T10:57:21.626Z,9.83
2019-02-07T10:58:21.610Z,9.80
2019-02-07T10:59:21.600Z,9.66
2019-02-07T11:00:21.682Z,9.76
2019-02-07T11:01:21.589Z,9.66
2019-02-07T11:02:21.566Z,9.80
2019-02-07T11:03:21.559Z,9.66
2019-02-07T11:04:21.547Z,9.64
2019-02-07T11:05:21.533Z,9.68
2019-02-07T11:06:21.565Z,9.62
2019-02-07T11:07:21.508Z,9.80
2019-02-07T11:08:21.499Z,9.82
2019-02-07T11:09:21.488Z,9.65
2019-02-07T11:10:21.477Z,9.62
2019-02-07T11:11:21.466Z,9.59
2019-02-07T11:12:21.509Z,9.55
2019-02-07T11:13:21.442Z,9.58
2019-02-07T11:14:21.436Z,9.64
2019-02-07T11:15:21.421Z,9.54
2019-02-07T11:16:21.408Z,9.61
2019-02-07T11:17:21.410Z,9.66
2019-02-07T11:18:21.387Z,9.59
2019-02-07T11:19:21.762Z,9.48
2019-02-07T11:20:21.363Z,9.41
2019-02-07T11:21:21.355Z,9.41
2019-02-07T11:22:23.099Z,9.43
2019-02-07T11:23:21.348Z,9.65
2019-02-07T11:24:21.323Z,9.69
2019-02-07T11:25:21.347Z,9.65
2019-02-07T11:26:21.296Z,9.68
2019-02-07T11:27:21.307Z,9.69
2019-02-07T11:28:21.275Z,9.69
2019-02-07T11:29:21.288Z,9.69
2019-02-07T11:30:21.253Z,9.54
2019-02-07T11:31:21.274Z,9.41
2019-02-07T11:32:21.243Z,9.41
2019-02-07T11:33:21.221Z,9.47
2019-02-07T11:34:21.209Z,9.40
2019-02-07T11:35:21.208Z,9.56
2019-02-07T11:36:21.239Z,9.68
2019-02-07T11:37:21.194Z,9.76
2019-02-07T11:38:21.166Z,9.82
2019-02-07T11:39:21.153Z,9.84
2019-02-07T11:40:21.157Z,9.77
2019-02-07T11:41:21.133Z,9.95
2019-02-07T11:42:21.120Z,9.98
2019-02-07T11:43:21.109Z,9.84
2019-02-07T11:44:21.128Z,9.79
2019-02-07T11:45:21.084Z,9.68
2019-02-07T11:46:21.096Z,9.69
2019-02-07T11:47:21.069Z,9.55
2019-02-07T11:48:21.050Z,9.56
2019-02-07T11:49:21.045Z,9.51
2019-02-07T11:50:21.032Z,9.62
2019-02-07T11:51:21.058Z,9.72
2019-02-07T11:52:21.008Z,9.66
2019-02-07T11:53:21.002Z,9.72
2019-02-07T11:54:20.985Z,9.74
2019-02-07T11:55:20.972Z,9.74
2019-02-07T11:56:20.963Z,9.94
2019-02-07T11:57:20.997Z,10.07
2019-02-07T11:58:20.941Z,10.12
2019-02-07T11:59:20.928Z,10.04
2019-02-07T12:00:20.923Z,10.19
2019-02-07T12:01:20.929Z,10.20
2019-02-07T12:02:20.912Z,10.37
2019-02-07T12:03:20.924Z,10.40
2019-02-07T12:04:20.874Z,10.28
2019-02-07T12:05:20.865Z,10.33
2019-02-07T12:06:20.851Z,10.23
2019-02-07T12:07:20.838Z,10.35
2019-02-07T12:08:20.846Z,10.54
2019-02-07T12:09:20.836Z,10.56
2019-02-07T12:10:20.843Z,10.49
2019-02-07T12:11:20.801Z,10.51
2019-02-07T12:12:20.783Z,10.37
2019-02-07T12:13:20.772Z,10.25
2019-02-07T12:14:20.790Z,10.09
2019-02-07T12:15:20.769Z,10.04
2019-02-07T12:16:20.740Z,10.19
2019-02-07T12:17:22.966Z,10.44
2019-02-07T12:18:20.720Z,10.57
2019-02-07T12:19:20.723Z,10.69
2019-02-07T12:20:20.694Z,10.68
2019-02-07T12:21:20.709Z,10.59
2019-02-07T12:22:20.672Z,10.57
2019-02-07T12:23:20.660Z,10.34
2019-02-07T12:24:20.655Z,10.41
2019-02-07T12:25:20.654Z,10.37
2019-02-07T12:26:20.631Z,10.40
2019-02-07T12:27:20.649Z,10.60
2019-02-07T12:28:20.607Z,10.59
2019-02-07T12:29:20.595Z,10.40
2019-02-07T12:30:20.584Z,10.25
2019-02-07T12:31:20.583Z,10.12
2019-02-07T12:32:20.578Z,10.25
2019-02-07T12:33:20.564Z,10.30
2019-02-07T12:34:20.565Z,10.23
2019-02-07T12:35:20.529Z,10.19
2019-02-07T12:36:20.519Z,10.09
2019-02-07T12:37:20.509Z,9.76
2019-02-07T12:38:20.502Z,9.84
2019-02-07T12:39:20.524Z,9.83
2019-02-07T12:40:20.474Z,9.77
2019-02-07T12:41:20.459Z,9.80
2019-02-07T12:42:20.452Z,9.86
2019-02-07T12:43:20.450Z,9.83
2019-02-07T12:44:20.429Z,9.79
2019-02-07T12:45:20.453Z,9.77
2019-02-07T12:46:20.409Z,9.77
2019-02-07T12:47:20.392Z,9.77
2019-02-07T12:48:20.400Z,9.86
2019-02-07T12:49:28.877Z,9.77
2019-02-07T12:50:21.359Z,9.82
2019-02-07T12:51:20.364Z,9.91
2019-02-07T12:52:20.342Z,9.89
2019-02-07T12:53:20.328Z,9.86
2019-02-07T12:54:20.337Z,9.76
2019-02-07T12:55:20.319Z,9.79
2019-02-07T12:56:20.294Z,9.73
2019-02-07T12:57:20.316Z,9.86
2019-02-07T12:58:20.273Z,9.79
2019-02-07T12:59:20.261Z,9.91
2019-02-07T13:00:20.262Z,9.86
2019-02-07T13:01:20.236Z,9.84
2019-02-07T13:02:20.226Z,9.79
2019-02-07T13:03:20.264Z,9.80
2019-02-07T13:04:20.213Z,9.74
2019-02-07T13:05:20.194Z,9.80
2019-02-07T13:06:20.191Z,9.77
2019-02-07T13:07:20.170Z,9.68
2019-02-07T13:08:20.246Z,9.62
2019-02-07T13:09:20.165Z,9.61
2019-02-07T13:10:20.157Z,9.66
2019-02-07T13:11:20.144Z,9.62
2019-02-07T13:12:20.124Z,9.69
2019-02-07T13:13:20.146Z,9.69
2019-02-07T13:14:20.112Z,9.59
2019-02-07T13:15:20.081Z,9.66
2019-02-07T13:16:20.094Z,9.61
2019-02-07T13:17:20.091Z,9.58
2019-02-07T13:18:20.075Z,9.50
2019-02-07T13:19:20.035Z,9.58
2019-02-07T13:20:20.029Z,9.58
2019-02-07T13:21:20.030Z,9.56
2019-02-07T13:22:20.063Z,9.61
2019-02-07T13:23:20.047Z,9.65
2019-02-07T13:24:19.982Z,9.65
2019-02-07T13:25:19.993Z,9.76
2019-02-07T13:26:20.006Z,9.94
2019-02-07T13:27:19.945Z,10.01
2019-02-07T13:28:19.982Z,9.92
2019-02-07T13:29:19.942Z,9.94
2019-02-07T13:30:20.037Z,10.07
2019-02-07T13:31:19.924Z,10.04
2019-02-07T13:32:19.898Z,10.12
2019-02-07T13:33:19.974Z,10.02
2019-02-07T13:34:19.892Z,10.10
2019-02-07T13:35:19.904Z,10.05
2019-02-07T13:36:19.902Z,10.04
2019-02-07T13:37:19.843Z,10.12
2019-02-07T13:38:19.822Z,10.17
2019-02-07T13:39:19.828Z,10.04
2019-02-07T13:40:19.802Z,9.97
2019-02-07T13:41:19.813Z,9.97
2019-02-07T13:42:19.780Z,10.04
2019-02-07T13:43:19.775Z,10.12
2019-02-07T13:44:19.950Z,10.04
2019-02-07T13:45:19.888Z,10.07
2019-02-07T13:46:19.959Z,10.07
2019-02-07T13:47:19.861Z,10.09
2019-02-07T13:48:19.863Z,10.23
2019-02-07T13:49:19.777Z,10.04
2019-02-07T13:50:19.951Z,10.04
2019-02-07T13:51:19.712Z,10.05
2019-02-07T13:52:19.672Z,10.04
2019-02-07T13:53:19.699Z,9.92
2019-02-07T13:54:19.649Z,9.95
2019-02-07T13:55:19.637Z,9.89
2019-02-07T13:56:19.677Z,9.86
2019-02-07T13:57:19.610Z,9.87
2019-02-07T13:58:19.606Z,9.92
2019-02-07T13:59:19.594Z,9.84
2019-02-07T14:00:19.632Z,9.72
2019-02-07T14:01:19.570Z,9.76
2019-02-07T14:02:19.617Z,9.73
2019-02-07T14:03:19.548Z,9.69
2019-02-07T14:04:19.535Z,9.68
2019-02-07T14:05:19.527Z,9.69
2019-02-07T14:06:19.522Z,9.65
2019-02-07T14:07:19.527Z,9.65
2019-02-07T14:08:19.492Z,9.66
2019-02-07T14:09:19.514Z,9.64
2019-02-07T14:10:19.483Z,9.66
2019-02-07T14:11:19.458Z,9.66
2019-02-07T14:12:19.448Z,9.56
2019-02-07T14:13:19.518Z,9.59
2019-02-07T14:14:19.426Z,9.64
2019-02-07T14:15:19.449Z,9.54
2019-02-07T14:16:19.427Z,9.55
2019-02-07T14:17:19.391Z,9.56
2019-02-07T14:18:19.393Z,9.55
2019-02-07T14:19:19.367Z,9.61
2019-02-07T14:20:19.366Z,9.59
2019-02-07T14:21:19.389Z,9.56
2019-02-07T14:22:19.334Z,9.54
2019-02-07T14:23:19.322Z,9.54
2019-02-07T14:24:19.328Z,9.59
2019-02-07T14:25:19.298Z,9.56
2019-02-07T14:26:19.290Z,9.61
2019-02-07T14:27:19.316Z,9.58
2019-02-07T14:28:19.266Z,9.58
2019-02-07T14:29:19.270Z,9.47
2019-02-07T14:30:19.248Z,9.59
2019-02-07T14:31:19.234Z,9.58
2019-02-07T14:32:19.226Z,9.55
2019-02-07T14:33:19.210Z,9.54
2019-02-07T14:34:19.241Z,9.51
2019-02-07T14:35:19.221Z,9.47
2019-02-07T14:36:19.174Z,9.50
2019-02-07T14:37:19.168Z,9.54
2019-02-07T14:38:19.154Z,9.47
2019-02-07T14:39:19.144Z,9.46
2019-02-07T14:40:19.159Z,9.50
2019-02-07T14:41:19.155Z,9.46
2019-02-07T14:42:19.112Z,9.37
2019-02-07T14:43:19.098Z,9.51
2019-02-07T14:44:19.088Z,9.46
2019-02-07T14:45:19.088Z,9.47
2019-02-07T14:46:19.065Z,9.46
2019-02-07T14:47:19.070Z,9.48
2019-02-07T14:48:19.089Z,9.41
2019-02-07T14:49:19.031Z,9.43